sensor_id;sensor_type;location;lat;lon;timestamp;temperature;humidity
8664;DHT22;4369;47.842;13.096;2023-05-27T01:42:58;15.00;1.00
8664;DHT22;4369;47.842;13.096;2023-05-27T02:52:52;14.10;46.90
8664;DHT22;4369;47.842;13.096;2023-05-27T02:55:19;14.00;1.00
8664;DHT22;4369;47.842;13.096;2023-05-27T03:15:52;13.40;1.00
8664;DHT22;4369;47.842;13.096;2023-05-27T03:28:41;13.10;1.00
8664;DHT22;4369;47.842;13.096;2023-05-27T03:31:11;13.10;1.00
8664;DHT22;4369;47.842;13.096;2023-05-27T03:33:52;13.10;1.00
8664;DHT22;4369;47.842;13.096;2023-05-27T03:36:20;13.00;1.00
8664;DHT22;4369;47.842;13.096;2023-05-27T03:38:48;13.00;1.00
8664;DHT22;4369;47.842;13.096;2023-05-27T03:41:23;12.90;1.00
8664;DHT22;4369;47.842;13.096;2023-05-27T03:43:50;12.90;1.00
8664;DHT22;4369;47.842;13.096;2023-05-27T03:46:26;12.90;1.00
8664;DHT22;4369;47.842;13.096;2023-05-27T03:52:00;12.90;1.00
8664;DHT22;4369;47.842;13.096;2023-05-27T04:04:42;12.70;1.00
8664;DHT22;4369;47.842;13.096;2023-05-27T04:10:07;12.80;1.00
8664;DHT22;4369;47.842;13.096;2023-05-27T04:15:12;12.90;5.80
8664;DHT22;4369;47.842;13.096;2023-05-27T04:17:39;13.00;46.50
8664;DHT22;4369;47.842;13.096;2023-05-27T04:20:10;13.10;46.40
8664;DHT22;4369;47.842;13.096;2023-05-27T04:25:05;13.10;94.40
8664;DHT22;4369;47.842;13.096;2023-05-27T04:27:32;13.10;99.90
8664;DHT22;4369;47.842;13.096;2023-05-27T04:29:59;13.20;99.90
8664;DHT22;4369;47.842;13.096;2023-05-27T04:37:38;13.40;99.90
8664;DHT22;4369;47.842;13.096;2023-05-27T04:40:11;13.40;99.90
8664;DHT22;4369;47.842;13.096;2023-05-27T04:42:38;13.40;99.90
8664;DHT22;4369;47.842;13.096;2023-05-27T04:45:17;13.50;99.90
8664;DHT22;4369;47.842;13.096;2023-05-27T04:47:46;13.60;99.90
8664;DHT22;4369;47.842;13.096;2023-05-27T04:50:14;13.50;99.90
8664;DHT22;4369;47.842;13.096;2023-05-27T04:52:56;13.60;99.90
8664;DHT22;4369;47.842;13.096;2023-05-27T04:55:23;13.70;99.90
8664;DHT22;4369;47.842;13.096;2023-05-27T04:57:50;13.70;99.90
8664;DHT22;4369;47.842;13.096;2023-05-27T05:00:17;13.90;99.90
8664;DHT22;4369;47.842;13.096;2023-05-27T05:02:48;13.90;99.90
8664;DHT22;4369;47.842;13.096;2023-05-27T05:05:27;14.00;99.90
8664;DHT22;4369;47.842;13.096;2023-05-27T05:07:55;14.10;99.90
8664;DHT22;4369;47.842;13.096;2023-05-27T05:13:21;14.30;99.90
8664;DHT22;4369;47.842;13.096;2023-05-27T05:15:48;14.40;99.90
8664;DHT22;4369;47.842;13.096;2023-05-27T05:18:15;14.50;99.90
8664;DHT22;4369;47.842;13.096;2023-05-27T05:23:19;14.60;99.90
8664;DHT22;4369;47.842;13.096;2023-05-27T05:25:46;14.80;99.90
8664;DHT22;4369;47.842;13.096;2023-05-27T05:28:19;14.90;99.90
8664;DHT22;4369;47.842;13.096;2023-05-27T05:30:46;14.90;99.90
8664;DHT22;4369;47.842;13.096;2023-05-27T05:33:13;15.00;99.90
8664;DHT22;4369;47.842;13.096;2023-05-27T05:35:40;15.10;91.70
8664;DHT22;4369;47.842;13.096;2023-05-27T05:38:07;15.20;76.10
8664;DHT22;4369;47.842;13.096;2023-05-27T05:40:35;15.20;54.90
8664;DHT22;4369;47.842;13.096;2023-05-27T05:43:02;15.30;39.30
8664;DHT22;4369;47.842;13.096;2023-05-27T05:45:29;15.30;35.50
8664;DHT22;4369;47.842;13.096;2023-05-27T05:47:57;15.40;22.50
8664;DHT22;4369;47.842;13.096;2023-05-27T05:50:24;15.50;1.00
8664;DHT22;4369;47.842;13.096;2023-05-27T05:52:51;15.40;1.00
8664;DHT22;4369;47.842;13.096;2023-05-27T05:55:18;15.50;1.00
8664;DHT22;4369;47.842;13.096;2023-05-27T05:57:47;15.60;1.00
8664;DHT22;4369;47.842;13.096;2023-05-27T06:00:15;15.60;1.00
8664;DHT22;4369;47.842;13.096;2023-05-27T06:02:42;15.70;1.00
8664;DHT22;4369;47.842;13.096;2023-05-27T06:05:09;15.80;1.00
8664;DHT22;4369;47.842;13.096;2023-05-27T06:07:43;15.90;1.00
8664;DHT22;4369;47.842;13.096;2023-05-27T06:10:31;16.00;1.00
8664;DHT22;4369;47.842;13.096;2023-05-27T06:21:46;16.40;1.00
8664;DHT22;4369;47.842;13.096;2023-05-27T06:24:13;16.50;1.00
8664;DHT22;4369;47.842;13.096;2023-05-27T06:34:18;16.90;1.00
8664;DHT22;4369;47.842;13.096;2023-05-27T06:36:46;17.00;99.90
8664;DHT22;4369;47.842;13.096;2023-05-27T06:47:26;17.50;34.00
8664;DHT22;4369;47.842;13.096;2023-05-27T07:28:52;18.60;1.00
8664;DHT22;4369;47.842;13.096;2023-05-27T07:31:19;18.60;1.00
8664;DHT22;4369;47.842;13.096;2023-05-27T07:33:46;18.80;1.00
8664;DHT22;4369;47.842;13.096;2023-05-27T07:36:13;18.80;1.00
8664;DHT22;4369;47.842;13.096;2023-05-27T07:38:40;18.90;1.00
8664;DHT22;4369;47.842;13.096;2023-05-27T07:41:08;18.90;1.00
8664;DHT22;4369;47.842;13.096;2023-05-27T07:43:38;19.00;1.00
8664;DHT22;4369;47.842;13.096;2023-05-27T07:46:22;19.00;1.00
8664;DHT22;4369;47.842;13.096;2023-05-27T07:52:12;19.20;1.00
8664;DHT22;4369;47.842;13.096;2023-05-27T08:05:03;19.40;1.00
8664;DHT22;4369;47.842;13.096;2023-05-27T08:12:41;19.70;1.00
8664;DHT22;4369;47.842;13.096;2023-05-27T08:15:08;19.80;1.00
8664;DHT22;4369;47.842;13.096;2023-05-27T08:45:55;20.60;1.00
8664;DHT22;4369;47.842;13.096;2023-05-27T08:51:54;20.70;1.00
8664;DHT22;4369;47.842;13.096;2023-05-27T08:54:21;20.80;1.00
8664;DHT22;4369;47.842;13.096;2023-05-27T09:17:32;21.60;1.00
8664;DHT22;4369;47.842;13.096;2023-05-27T09:20:00;21.70;1.00
8664;DHT22;4369;47.842;13.096;2023-05-27T09:43:01;22.20;1.00
8664;DHT22;4369;47.842;13.096;2023-05-27T09:45:28;22.30;1.00
8664;DHT22;4369;47.842;13.096;2023-05-27T09:47:56;22.30;1.00
8664;DHT22;4369;47.842;13.096;2023-05-27T09:50:25;22.50;1.00
8664;DHT22;4369;47.842;13.096;2023-05-27T09:52:53;22.60;1.00
8664;DHT22;4369;47.842;13.096;2023-05-27T09:55:23;22.60;1.00
8664;DHT22;4369;47.842;13.096;2023-05-27T09:57:50;22.60;1.00
8664;DHT22;4369;47.842;13.096;2023-05-27T10:00:20;22.80;1.00
8664;DHT22;4369;47.842;13.096;2023-05-27T10:02:48;23.00;1.00
8664;DHT22;4369;47.842;13.096;2023-05-27T10:05:16;23.00;1.00
8664;DHT22;4369;47.842;13.096;2023-05-27T10:07:46;22.80;1.00
8664;DHT22;4369;47.842;13.096;2023-05-27T10:10:15;22.90;1.00
8664;DHT22;4369;47.842;13.096;2023-05-27T10:12:44;23.10;1.00
8664;DHT22;4369;47.842;13.096;2023-05-27T10:15:26;23.30;1.00
8664;DHT22;4369;47.842;13.096;2023-05-27T10:17:55;23.40;1.00
8664;DHT22;4369;47.842;13.096;2023-05-27T10:20:30;23.60;1.00
8664;DHT22;4369;47.842;13.096;2023-05-27T10:23:09;23.70;1.00
8664;DHT22;4369;47.842;13.096;2023-05-27T10:25:36;23.70;1.00
8664;DHT22;4369;47.842;13.096;2023-05-27T10:28:03;23.80;1.00
8664;DHT22;4369;47.842;13.096;2023-05-27T10:30:42;23.90;1.00
8664;DHT22;4369;47.842;13.096;2023-05-27T10:33:10;24.10;1.00
8664;DHT22;4369;47.842;13.096;2023-05-27T10:35:40;24.20;1.00
8664;DHT22;4369;47.842;13.096;2023-05-27T10:38:15;24.20;1.00
8664;DHT22;4369;47.842;13.096;2023-05-27T10:40:42;24.20;1.00
8664;DHT22;4369;47.842;13.096;2023-05-27T10:43:15;24.40;1.00
8664;DHT22;4369;47.842;13.096;2023-05-27T10:45:44;24.50;1.00
8664;DHT22;4369;47.842;13.096;2023-05-27T10:48:21;24.50;1.00
8664;DHT22;4369;47.842;13.096;2023-05-27T10:50:56;24.60;1.00
8664;DHT22;4369;47.842;13.096;2023-05-27T10:53:25;24.60;1.00
8664;DHT22;4369;47.842;13.096;2023-05-27T10:55:53;24.70;1.00
8664;DHT22;4369;47.842;13.096;2023-05-27T10:58:20;24.70;1.00
8664;DHT22;4369;47.842;13.096;2023-05-27T11:00:50;24.50;1.00
8664;DHT22;4369;47.842;13.096;2023-05-27T11:03:21;24.70;1.00
8664;DHT22;4369;47.842;13.096;2023-05-27T11:05:57;24.90;1.00
8664;DHT22;4369;47.842;13.096;2023-05-27T11:08:25;25.10;1.00
8664;DHT22;4369;47.842;13.096;2023-05-27T11:10:57;25.20;1.00
8664;DHT22;4369;47.842;13.096;2023-05-27T11:13:30;25.20;1.00
8664;DHT22;4369;47.842;13.096;2023-05-27T11:15:59;25.40;1.00
8664;DHT22;4369;47.842;13.096;2023-05-27T11:18:34;25.70;1.00
8664;DHT22;4369;47.842;13.096;2023-05-27T11:21:01;25.80;1.00
8664;DHT22;4369;47.842;13.096;2023-05-27T11:23:34;25.80;1.00
8664;DHT22;4369;47.842;13.096;2023-05-27T11:26:02;25.90;1.00
8664;DHT22;4369;47.842;13.096;2023-05-27T11:28:29;26.00;1.00
8664;DHT22;4369;47.842;13.096;2023-05-27T11:31:01;26.30;1.00
8664;DHT22;4369;47.842;13.096;2023-05-27T11:33:32;26.20;1.00
8664;DHT22;4369;47.842;13.096;2023-05-27T11:36:06;26.20;1.00
8664;DHT22;4369;47.842;13.096;2023-05-27T11:38:45;26.20;1.00
8664;DHT22;4369;47.842;13.096;2023-05-27T11:41:13;26.40;1.00
8664;DHT22;4369;47.842;13.096;2023-05-27T11:43:47;26.50;1.00
8664;DHT22;4369;47.842;13.096;2023-05-27T11:46:15;26.60;1.00
8664;DHT22;4369;47.842;13.096;2023-05-27T11:48:43;26.60;1.00
8664;DHT22;4369;47.842;13.096;2023-05-27T11:51:10;26.60;1.00
8664;DHT22;4369;47.842;13.096;2023-05-27T11:53:39;26.60;1.00
8664;DHT22;4369;47.842;13.096;2023-05-27T11:56:07;26.60;1.00
8664;DHT22;4369;47.842;13.096;2023-05-27T11:58:34;26.70;1.00
8664;DHT22;4369;47.842;13.096;2023-05-27T12:01:02;26.90;1.00
8664;DHT22;4369;47.842;13.096;2023-05-27T12:03:33;26.70;1.00
8664;DHT22;4369;47.842;13.096;2023-05-27T12:06:00;26.80;1.00
8664;DHT22;4369;47.842;13.096;2023-05-27T12:08:27;26.80;1.00
8664;DHT22;4369;47.842;13.096;2023-05-27T12:10:54;26.90;1.00
8664;DHT22;4369;47.842;13.096;2023-05-27T12:13:21;26.90;1.00
8664;DHT22;4369;47.842;13.096;2023-05-27T12:15:49;27.20;1.00
8664;DHT22;4369;47.842;13.096;2023-05-27T12:18:16;27.40;1.00
8664;DHT22;4369;47.842;13.096;2023-05-27T12:20:45;27.20;1.00
8664;DHT22;4369;47.842;13.096;2023-05-27T12:23:12;27.30;1.00
8664;DHT22;4369;47.842;13.096;2023-05-27T12:25:39;27.40;1.00
8664;DHT22;4369;47.842;13.096;2023-05-27T12:28:07;27.40;1.00
8664;DHT22;4369;47.842;13.096;2023-05-27T12:30:34;27.50;1.00
8664;DHT22;4369;47.842;13.096;2023-05-27T12:33:01;27.50;1.00
8664;DHT22;4369;47.842;13.096;2023-05-27T12:35:28;27.40;1.00
8664;DHT22;4369;47.842;13.096;2023-05-27T12:37:56;27.30;1.00
8664;DHT22;4369;47.842;13.096;2023-05-27T12:40:23;27.40;1.00
8664;DHT22;4369;47.842;13.096;2023-05-27T12:42:50;27.60;1.00
8664;DHT22;4369;47.842;13.096;2023-05-27T12:45:17;27.50;1.00
8664;DHT22;4369;47.842;13.096;2023-05-27T12:47:47;27.50;1.00
8664;DHT22;4369;47.842;13.096;2023-05-27T12:50:14;27.70;1.00
8664;DHT22;4369;47.842;13.096;2023-05-27T12:52:41;27.80;1.00
8664;DHT22;4369;47.842;13.096;2023-05-27T12:55:13;27.90;1.00
8664;DHT22;4369;47.842;13.096;2023-05-27T12:57:40;28.00;1.00
8664;DHT22;4369;47.842;13.096;2023-05-27T13:00:08;28.20;1.00
8664;DHT22;4369;47.842;13.096;2023-05-27T13:02:36;28.20;1.00
8664;DHT22;4369;47.842;13.096;2023-05-27T13:05:04;28.30;1.00
8664;DHT22;4369;47.842;13.096;2023-05-27T13:07:32;28.30;1.00
8664;DHT22;4369;47.842;13.096;2023-05-27T13:10:00;28.50;1.00
8664;DHT22;4369;47.842;13.096;2023-05-27T13:12:29;28.20;1.00
8664;DHT22;4369;47.842;13.096;2023-05-27T13:14:57;28.50;1.00
8664;DHT22;4369;47.842;13.096;2023-05-27T13:17:24;28.80;1.00
8664;DHT22;4369;47.842;13.096;2023-05-27T13:19:51;29.20;1.00
8664;DHT22;4369;47.842;13.096;2023-05-27T13:22:18;29.60;1.00
8664;DHT22;4369;47.842;13.096;2023-05-27T13:24:45;29.60;1.00
8664;DHT22;4369;47.842;13.096;2023-05-27T13:27:12;29.70;1.00
8664;DHT22;4369;47.842;13.096;2023-05-27T13:29:41;29.50;1.00
8664;DHT22;4369;47.842;13.096;2023-05-27T13:32:08;29.30;1.00
8664;DHT22;4369;47.842;13.096;2023-05-27T13:34:35;29.30;1.00
8664;DHT22;4369;47.842;13.096;2023-05-27T13:37:02;29.70;1.00
8664;DHT22;4369;47.842;13.096;2023-05-27T13:39:29;30.20;1.00
8664;DHT22;4369;47.842;13.096;2023-05-27T13:41:57;30.60;1.00
8664;DHT22;4369;47.842;13.096;2023-05-27T13:44:24;31.00;1.00
8664;DHT22;4369;47.842;13.096;2023-05-27T13:46:52;31.50;1.00
8664;DHT22;4369;47.842;13.096;2023-05-27T13:49:19;32.30;1.00
8664;DHT22;4369;47.842;13.096;2023-05-27T13:51:47;33.30;1.00
8664;DHT22;4369;47.842;13.096;2023-05-27T13:54:14;34.10;1.00
8664;DHT22;4369;47.842;13.096;2023-05-27T13:56:41;36.70;1.00
8664;DHT22;4369;47.842;13.096;2023-05-27T13:59:09;38.50;1.00
8664;DHT22;4369;47.842;13.096;2023-05-27T14:01:36;39.60;1.00
8664;DHT22;4369;47.842;13.096;2023-05-27T14:04:04;39.60;1.00
8664;DHT22;4369;47.842;13.096;2023-05-27T14:06:31;40.90;1.00
8664;DHT22;4369;47.842;13.096;2023-05-27T14:08:58;41.90;1.00
8664;DHT22;4369;47.842;13.096;2023-05-27T14:11:25;42.00;1.00
8664;DHT22;4369;47.842;13.096;2023-05-27T14:13:53;43.10;1.00
8664;DHT22;4369;47.842;13.096;2023-05-27T14:16:21;43.20;1.00
8664;DHT22;4369;47.842;13.096;2023-05-27T14:18:48;44.20;1.00
8664;DHT22;4369;47.842;13.096;2023-05-27T14:21:16;44.30;1.00
8664;DHT22;4369;47.842;13.096;2023-05-27T14:23:44;44.40;1.00
8664;DHT22;4369;47.842;13.096;2023-05-27T14:26:11;43.60;1.00
8664;DHT22;4369;47.842;13.096;2023-05-27T14:28:38;42.70;1.00
8664;DHT22;4369;47.842;13.096;2023-05-27T14:31:05;43.30;1.00
8664;DHT22;4369;47.842;13.096;2023-05-27T14:33:32;43.10;1.00
8664;DHT22;4369;47.842;13.096;2023-05-27T14:35:59;44.00;1.00
8664;DHT22;4369;47.842;13.096;2023-05-27T14:38:27;45.00;1.00
8664;DHT22;4369;47.842;13.096;2023-05-27T14:40:54;44.20;1.00
8664;DHT22;4369;47.842;13.096;2023-05-27T14:43:21;43.40;1.00
8664;DHT22;4369;47.842;13.096;2023-05-27T14:45:48;41.10;1.00
8664;DHT22;4369;47.842;13.096;2023-05-27T14:48:15;40.50;1.00
8664;DHT22;4369;47.842;13.096;2023-05-27T14:50:42;40.70;1.00
8664;DHT22;4369;47.842;13.096;2023-05-27T14:53:08;40.50;1.00
8664;DHT22;4369;47.842;13.096;2023-05-27T14:55:37;41.20;1.00
8664;DHT22;4369;47.842;13.096;2023-05-27T14:58:04;40.90;1.00
8664;DHT22;4369;47.842;13.096;2023-05-27T15:00:32;40.50;1.00
8664;DHT22;4369;47.842;13.096;2023-05-27T15:02:59;39.60;1.00
8664;DHT22;4369;47.842;13.096;2023-05-27T15:05:26;39.70;1.00
8664;DHT22;4369;47.842;13.096;2023-05-27T15:07:52;40.20;1.00
8664;DHT22;4369;47.842;13.096;2023-05-27T15:10:19;39.70;1.00
8664;DHT22;4369;47.842;13.096;2023-05-27T15:12:47;38.90;1.00
8664;DHT22;4369;47.842;13.096;2023-05-27T15:15:17;38.40;1.00
8664;DHT22;4369;47.842;13.096;2023-05-27T15:17:44;37.70;1.00
8664;DHT22;4369;47.842;13.096;2023-05-27T15:20:12;36.20;1.00
8664;DHT22;4369;47.842;13.096;2023-05-27T15:22:39;35.60;1.00
8664;DHT22;4369;47.842;13.096;2023-05-27T15:25:07;35.00;1.00
8664;DHT22;4369;47.842;13.096;2023-05-27T15:27:34;33.70;1.00
8664;DHT22;4369;47.842;13.096;2023-05-27T15:30:04;32.90;1.00
8664;DHT22;4369;47.842;13.096;2023-05-27T15:32:31;32.00;1.00
8664;DHT22;4369;47.842;13.096;2023-05-27T15:34:58;31.50;1.00
8664;DHT22;4369;47.842;13.096;2023-05-27T15:37:27;31.10;1.00
8664;DHT22;4369;47.842;13.096;2023-05-27T15:39:54;30.20;1.00
8664;DHT22;4369;47.842;13.096;2023-05-27T15:42:21;29.70;1.00
8664;DHT22;4369;47.842;13.096;2023-05-27T15:44:48;29.40;1.00
8664;DHT22;4369;47.842;13.096;2023-05-27T15:47:16;29.30;1.00
8664;DHT22;4369;47.842;13.096;2023-05-27T15:49:43;28.90;1.00
8664;DHT22;4369;47.842;13.096;2023-05-27T15:52:10;28.50;1.00
8664;DHT22;4369;47.842;13.096;2023-05-27T15:54:38;28.30;1.00
8664;DHT22;4369;47.842;13.096;2023-05-27T15:57:05;28.20;1.00
8664;DHT22;4369;47.842;13.096;2023-05-27T15:59:33;28.00;1.00
8664;DHT22;4369;47.842;13.096;2023-05-27T16:02:00;28.00;1.00
8664;DHT22;4369;47.842;13.096;2023-05-27T16:04:29;27.50;1.00
8664;DHT22;4369;47.842;13.096;2023-05-27T16:06:56;27.40;1.00
8664;DHT22;4369;47.842;13.096;2023-05-27T16:09:23;27.30;1.00
8664;DHT22;4369;47.842;13.096;2023-05-27T16:11:50;27.30;1.00
8664;DHT22;4369;47.842;13.096;2023-05-27T16:14:17;27.30;1.00
8664;DHT22;4369;47.842;13.096;2023-05-27T16:16:45;27.10;1.00
8664;DHT22;4369;47.842;13.096;2023-05-27T16:19:12;26.80;1.00
8664;DHT22;4369;47.842;13.096;2023-05-27T16:21:40;26.50;1.00
8664;DHT22;4369;47.842;13.096;2023-05-27T16:24:10;26.40;1.00
8664;DHT22;4369;47.842;13.096;2023-05-27T16:26:37;26.20;1.00
8664;DHT22;4369;47.842;13.096;2023-05-27T16:29:04;26.10;1.00
8664;DHT22;4369;47.842;13.096;2023-05-27T16:31:31;25.90;1.00
8664;DHT22;4369;47.842;13.096;2023-05-27T16:33:58;25.70;1.00
8664;DHT22;4369;47.842;13.096;2023-05-27T16:36:25;25.60;1.00
8664;DHT22;4369;47.842;13.096;2023-05-27T16:38:53;25.30;1.00
8664;DHT22;4369;47.842;13.096;2023-05-27T16:41:20;25.10;1.00
8664;DHT22;4369;47.842;13.096;2023-05-27T16:43:48;24.90;1.00
8664;DHT22;4369;47.842;13.096;2023-05-27T16:46:15;24.50;1.00
8664;DHT22;4369;47.842;13.096;2023-05-27T16:48:41;24.10;1.00
8664;DHT22;4369;47.842;13.096;2023-05-27T23:25:41;13.50;97.20
8664;DHT22;4369;47.842;13.096;2023-05-27T23:48:52;13.10;99.90
8664;DHT22;4369;47.842;13.096;2023-05-27T23:51:40;13.10;99.90
8664;DHT22;4369;47.842;13.096;2023-05-27T23:56:48;13.10;1.00
